Time;durP1;ratioP1;P1;durP2;ratioP2;P2;SDS_P1;SDS_P2;PMS_P1;PMS_P2;Temp;Humidity;BMP_temperature;BMP_pressure;BME280_temperature;BME280_humidity;BME280_pressure;Samples;Min_cycle;Max_cycle;Signal;HPM_P1;HPM_P2
2022/11/14 00:00:34;;;;;;;4.53;4.23;;;20.60;43.30;;;;;;5043112;28;20869;-61
2022/11/14 00:03:04;;;;;;;4.13;3.83;;;20.60;43.30;;;;;;5047775;28;20463;-61
2022/11/14 00:05:29;;;;;;;4.10;3.90;;;20.60;43.30;;;;;;5046285;28;20228;-62
2022/11/14 00:07:55;;;;;;;4.00;3.70;;;20.60;43.30;;;;;;5045084;28;20474;-61
2022/11/14 00:10:20;;;;;;;3.93;3.73;;;20.60;43.30;;;;;;5052862;28;20862;-62
2022/11/14 00:12:46;;;;;;;3.63;3.43;;;20.60;43.30;;;;;;5052283;28;20244;-61
2022/11/14 00:15:12;;;;;;;4.20;4.00;;;20.60;43.30;;;;;;5048033;28;20232;-61
2022/11/14 00:17:38;;;;;;;4.20;4.00;;;20.60;43.30;;;;;;5042089;28;20240;-62
2022/11/14 00:20:05;;;;;;;4.23;4.00;;;20.60;43.30;;;;;;5050942;28;20221;-61
2022/11/14 00:22:31;;;;;;;4.03;3.83;;;20.60;43.30;;;;;;5049400;28;20520;-61
2022/11/14 00:24:57;;;;;;;3.63;3.43;;;20.60;43.40;;;;;;5042604;28;20454;-61
2022/11/14 00:27:22;;;;;;;4.10;3.90;;;20.60;43.30;;;;;;5043986;28;20213;-61
2022/11/14 00:29:48;;;;;;;3.83;3.60;;;20.60;43.30;;;;;;5055855;28;20236;-61
2022/11/14 00:32:13;;;;;;;4.03;3.73;;;20.60;43.40;;;;;;5053192;28;20344;-61
2022/11/14 00:34:39;;;;;;;4.33;4.13;;;20.60;43.30;;;;;;5051828;28;20627;-61
2022/11/14 00:37:04;;;;;;;3.50;3.30;;;20.60;43.30;;;;;;5048636;28;20225;-61
2022/11/14 00:39:30;;;;;;;3.90;3.60;;;20.60;43.40;;;;;;5052768;28;20225;-61
2022/11/14 00:41:55;;;;;;;3.67;3.47;;;20.60;43.30;;;;;;5048595;28;22058;-61
2022/11/14 00:44:21;;;;;;;3.73;3.53;;;20.60;43.40;;;;;;5051745;28;20229;-62
2022/11/14 00:46:46;;;;;;;4.03;3.83;;;20.60;43.40;;;;;;5049837;28;20343;-61
2022/11/14 00:49:12;;;;;;;3.43;3.23;;;20.60;43.40;;;;;;5054278;28;20306;-61
2022/11/14 00:51:38;;;;;;;3.83;3.63;;;20.60;43.40;;;;;;5062626;28;20290;-61
2022/11/14 00:54:03;;;;;;;3.63;3.43;;;20.60;43.40;;;;;;5054519;28;20218;-61
2022/11/14 00:56:29;;;;;;;4.33;4.10;;;20.60;43.40;;;;;;5055040;28;20229;-61
2022/11/14 00:58:55;;;;;;;4.10;3.90;;;20.60;43.40;;;;;;5056321;28;20218;-62
2022/11/14 01:01:20;;;;;;;3.70;3.43;;;20.60;43.30;;;;;;5061167;28;20217;-61
2022/11/14 01:03:49;;;;;;;4.30;4.10;;;20.60;43.30;;;;;;5055786;28;20308;-61
2022/11/14 01:06:16;;;;;;;4.50;4.20;;;20.60;43.30;;;;;;5056051;28;20271;-61
2022/11/14 01:08:42;;;;;;;4.10;3.80;;;20.60;43.30;;;;;;5051547;28;20451;-61
2022/11/14 01:11:10;;;;;;;4.10;3.90;;;20.60;43.30;;;;;;5056571;28;20455;-61
2022/11/14 01:13:36;;;;;;;3.70;3.50;;;20.60;43.30;;;;;;5057052;28;21707;-61
2022/11/14 01:16:02;;;;;;;4.20;4.00;;;20.60;43.30;;;;;;5053966;28;20976;-61
2022/11/14 01:18:27;;;;;;;4.33;4.03;;;20.60;43.40;;;;;;5051735;28;20240;-61
2022/11/14 01:20:53;;;;;;;3.93;3.63;;;20.60;43.30;;;;;;5044177;28;20308;-61
2022/11/14 01:23:18;;;;;;;3.90;3.67;;;20.60;43.30;;;;;;5062472;28;20240;-61
2022/11/14 01:25:44;;;;;;;3.90;3.70;;;20.60;43.30;;;;;;5038047;28;20757;-61
2022/11/14 01:28:14;;;;;;;3.50;3.30;;;20.60;43.30;;;;;;5047365;28;20237;-61
2022/11/14 01:30:39;;;;;;;3.80;3.60;;;20.60;43.30;;;;;;5055214;28;20772;-60
2022/11/14 01:33:05;;;;;;;3.43;3.23;;;20.50;43.20;;;;;;5053065;28;20461;-61
2022/11/14 01:35:33;;;;;;;4.10;3.80;;;20.60;43.30;;;;;;5051829;28;20331;-61
2022/11/14 01:37:58;;;;;;;3.93;3.70;;;20.60;43.40;;;;;;5045455;28;20833;-60
2022/11/14 01:40:24;;;;;;;4.20;3.90;;;20.50;43.30;;;;;;5048491;28;20453;-61
2022/11/14 01:43:22;;;;;;;4.17;3.87;;;20.60;43.40;;;;;;5050438;28;20213;-61
2022/11/14 01:45:51;;;;;;;3.70;3.50;;;20.60;43.40;;;;;;5050476;28;20486;-62
2022/11/14 01:48:37;;;;;;;3.93;3.73;;;20.60;43.40;;;;;;5057274;28;20555;-61
2022/11/14 01:51:32;;;;;;;4.53;4.23;;;20.60;43.30;;;;;;5059954;28;21123;-61
2022/11/14 01:54:02;;;;;;;3.80;3.60;;;20.50;43.20;;;;;;5055792;28;21043;-61
2022/11/14 01:56:53;;;;;;;4.00;3.80;;;20.50;43.30;;;;;;5060120;28;21242;-61
2022/11/14 01:59:24;;;;;;;3.60;3.40;;;20.60;43.30;;;;;;5048340;28;21073;-61
2022/11/14 02:01:53;;;;;;;3.47;3.27;;;20.50;43.30;;;;;;5054375;28;20488;-61
2022/11/14 02:04:26;;;;;;;3.50;3.30;;;20.50;43.30;;;;;;5053280;28;20457;-61
2022/11/14 02:06:58;;;;;;;4.10;3.90;;;20.50;43.20;;;;;;5052139;28;20465;-61
2022/11/14 02:09:24;;;;;;;3.47;3.27;;;20.50;43.30;;;;;;5051848;28;20486;-60
2022/11/14 02:11:52;;;;;;;3.77;3.57;;;20.50;43.30;;;;;;5054797;28;20454;-61
2022/11/14 02:14:18;;;;;;;3.87;3.60;;;20.50;43.30;;;;;;5056257;28;20449;-61
2022/11/14 02:16:43;;;;;;;4.00;3.80;;;20.60;44.10;;;;;;5052963;28;21060;-61
2022/11/14 02:19:09;;;;;;;4.10;3.80;;;20.50;43.30;;;;;;5053315;28;20307;-61
2022/11/14 02:21:35;;;;;;;3.60;3.40;;;20.50;43.20;;;;;;5058404;28;20241;-61
2022/11/14 02:24:01;;;;;;;3.90;3.60;;;20.50;43.20;;;;;;5055927;28;20221;-61
2022/11/14 02:26:26;;;;;;;3.90;3.70;;;20.50;43.30;;;;;;5047180;28;20228;-61
2022/11/14 02:28:52;;;;;;;3.70;3.50;;;20.60;43.30;;;;;;5045793;28;20979;-62
2022/11/14 02:31:18;;;;;;;3.77;3.53;;;20.50;43.20;;;;;;5048189;28;20221;-61
2022/11/14 02:33:43;;;;;;;3.47;3.27;;;20.50;43.20;;;;;;5053932;28;20274;-61
2022/11/14 02:36:09;;;;;;;3.93;3.73;;;20.50;43.20;;;;;;5048994;28;20234;-61
2022/11/14 02:38:35;;;;;;;3.90;3.70;;;20.50;43.20;;;;;;5051264;28;20321;-60
2022/11/14 02:41:01;;;;;;;4.13;3.93;;;20.50;43.20;;;;;;5050767;28;20229;-61
2022/11/14 02:43:27;;;;;;;3.80;3.60;;;20.50;43.20;;;;;;5045998;28;20467;-61
2022/11/14 02:45:53;;;;;;;3.90;3.70;;;20.50;43.20;;;;;;5049987;28;20469;-61
2022/11/14 02:48:18;;;;;;;3.53;3.33;;;20.50;43.20;;;;;;5050120;28;20784;-60
2022/11/14 02:50:46;;;;;;;3.23;3.03;;;20.50;43.20;;;;;;5057421;28;20233;-61
2022/11/14 02:53:12;;;;;;;3.87;3.67;;;20.50;43.20;;;;;;5061315;28;20249;-61
2022/11/14 02:55:37;;;;;;;3.90;3.70;;;20.50;43.20;;;;;;5048618;28;20596;-60
2022/11/14 02:58:03;;;;;;;4.53;3.50;;;20.50;43.20;;;;;;5048470;28;20860;-61
2022/11/14 03:00:28;;;;;;;4.07;3.77;;;20.60;43.30;;;;;;5051127;28;20627;-60
2022/11/14 03:02:54;;;;;;;3.70;3.40;;;20.50;43.20;;;;;;5060535;28;20741;-61
2022/11/14 03:05:20;;;;;;;3.87;3.60;;;20.50;43.10;;;;;;5059030;28;22543;-61
2022/11/14 03:07:45;;;;;;;3.97;3.77;;;20.50;43.10;;;;;;5054628;28;20221;-61
2022/11/14 03:10:12;;;;;;;4.37;4.13;;;20.50;43.10;;;;;;5047597;28;20243;-61
2022/11/14 03:12:38;;;;;;;3.60;3.40;;;20.50;43.10;;;;;;5030995;28;20252;-61
2022/11/14 03:15:06;;;;;;;4.57;4.17;;;20.50;43.10;;;;;;5050744;28;20911;-61
2022/11/14 03:17:32;;;;;;;3.80;3.50;;;20.50;43.10;;;;;;5057685;28;20477;-60
2022/11/14 03:19:58;;;;;;;3.80;3.57;;;20.50;43.10;;;;;;5059778;28;20546;-60
2022/11/14 03:22:24;;;;;;;3.60;3.40;;;20.50;43.10;;;;;;5058330;28;21260;-61
2022/11/14 03:24:50;;;;;;;3.50;3.30;;;20.60;43.20;;;;;;5061036;28;20858;-61
2022/11/14 03:27:15;;;;;;;4.10;3.90;;;20.50;43.10;;;;;;5048617;28;20582;-60
2022/11/14 03:29:41;;;;;;;3.53;3.33;;;20.50;43.10;;;;;;5053034;28;20938;-61
2022/11/14 03:32:06;;;;;;;3.33;3.13;;;20.50;43.10;;;;;;5060655;28;20582;-61
2022/11/14 03:34:32;;;;;;;3.40;3.20;;;20.50;43.10;;;;;;5059886;28;20795;-61
2022/11/14 03:36:59;;;;;;;3.60;3.40;;;20.50;43.10;;;;;;5048671;28;20719;-61
2022/11/14 03:39:25;;;;;;;3.50;3.20;;;20.50;43.10;;;;;;5053245;28;20213;-60
2022/11/14 03:41:51;;;;;;;3.37;3.17;;;20.50;43.10;;;;;;5048087;28;20485;-61
2022/11/14 03:44:16;;;;;;;3.50;3.30;;;20.50;43.10;;;;;;5050989;28;20572;-61
2022/11/14 03:46:42;;;;;;;2.80;2.70;;;20.50;43.10;;;;;;5055097;28;20229;-60
2022/11/14 03:49:07;;;;;;;3.50;3.30;;;20.50;43.10;;;;;;5058895;28;20276;-61
2022/11/14 03:51:33;;;;;;;3.13;2.93;;;20.50;43.10;;;;;;5051088;28;20218;-60
2022/11/14 03:53:58;;;;;;;3.43;3.23;;;20.50;43.10;;;;;;5053250;28;20240;-61
2022/11/14 03:56:24;;;;;;;3.70;3.40;;;20.50;43.10;;;;;;5052791;28;20570;-61
2022/11/14 03:58:49;;;;;;;3.60;3.30;;;20.50;43.10;;;;;;5055809;28;20630;-61
2022/11/14 04:01:15;;;;;;;3.70;3.50;;;20.50;43.10;;;;;;5063392;28;20217;-61
2022/11/14 04:03:40;;;;;;;3.83;3.63;;;20.50;43.10;;;;;;5050388;28;20265;-61
2022/11/14 04:06:06;;;;;;;3.70;3.50;;;20.50;43.10;;;;;;5058464;28;20704;-61
2022/11/14 04:08:31;;;;;;;3.47;3.27;;;20.50;43.10;;;;;;5057750;28;20286;-61
2022/11/14 04:10:57;;;;;;;3.60;3.30;;;20.50;43.10;;;;;;5063232;28;20298;-61
2022/11/14 04:13:22;;;;;;;3.70;3.50;;;20.50;43.10;;;;;;5051740;28;20313;-61
2022/11/14 04:15:55;;;;;;;3.20;3.00;;;20.50;43.10;;;;;;5050662;28;20816;-61
2022/11/14 04:18:21;;;;;;;3.10;2.90;;;20.50;43.10;;;;;;5050895;28;20288;-61
2022/11/14 04:20:46;;;;;;;3.93;3.07;;;20.50;43.10;;;;;;5055691;28;20450;-61
2022/11/14 04:23:13;;;;;;;3.63;3.33;;;20.50;43.10;;;;;;5050933;28;20780;-61
2022/11/14 04:25:38;;;;;;;3.37;3.17;;;20.50;43.00;;;;;;5051198;28;20477;-60
2022/11/14 04:28:04;;;;;;;3.07;2.87;;;20.50;43.10;;;;;;5054020;28;20217;-62
2022/11/14 04:30:30;;;;;;;3.40;3.20;;;20.50;43.10;;;;;;5054610;28;20677;-61
2022/11/14 04:32:55;;;;;;;3.33;3.13;;;20.50;43.00;;;;;;5053261;28;20259;-61
2022/11/14 04:35:21;;;;;;;3.93;3.70;;;20.50;43.10;;;;;;5033988;28;20221;-62
2022/11/14 04:37:46;;;;;;;3.13;2.93;;;20.50;43.00;;;;;;5055318;28;20633;-61
2022/11/14 04:40:12;;;;;;;3.40;3.20;;;20.50;43.10;;;;;;5053411;28;20563;-61
2022/11/14 04:42:37;;;;;;;3.13;2.93;;;20.50;43.10;;;;;;5054297;28;20727;-61
2022/11/14 04:45:03;;;;;;;3.27;3.10;;;20.50;43.00;;;;;;5050630;28;20233;-61
2022/11/14 04:47:29;;;;;;;3.40;3.20;;;20.50;43.10;;;;;;5051505;28;20229;-62
2022/11/14 04:49:54;;;;;;;2.80;2.60;;;20.50;43.10;;;;;;5054742;28;20729;-61
2022/11/14 04:52:20;;;;;;;3.43;3.03;;;20.50;43.00;;;;;;5062616;28;20259;-61
2022/11/14 04:54:45;;;;;;;3.80;3.50;;;20.50;43.10;;;;;;5056460;28;20346;-61
2022/11/14 04:57:11;;;;;;;3.10;2.90;;;20.50;43.00;;;;;;5052256;28;20245;-61
2022/11/14 04:59:36;;;;;;;3.43;3.20;;;20.50;43.00;;;;;;5052582;28;20214;-61
2022/11/14 05:02:02;;;;;;;2.67;2.57;;;20.50;43.00;;;;;;5061528;28;20213;-61
2022/11/14 05:04:27;;;;;;;2.90;2.70;;;20.50;43.00;;;;;;5060165;28;20267;-60
2022/11/14 05:06:53;;;;;;;2.90;2.70;;;20.50;43.00;;;;;;5061718;28;20221;-61
2022/11/14 05:09:18;;;;;;;3.10;2.90;;;20.50;43.00;;;;;;5063975;28;20233;-61
2022/11/14 05:11:44;;;;;;;3.43;3.23;;;20.60;43.10;;;;;;5062918;28;20229;-61
2022/11/14 05:14:09;;;;;;;2.63;2.53;;;20.60;43.00;;;;;;5060572;28;20259;-62
2022/11/14 05:16:35;;;;;;;3.20;3.00;;;20.60;43.00;;;;;;5061603;28;20916;-61
2022/11/14 05:19:00;;;;;;;3.30;3.10;;;20.60;42.90;;;;;;5061357;28;20656;-61
2022/11/14 05:21:26;;;;;;;3.63;3.43;;;20.60;42.80;;;;;;5059708;28;20698;-61
2022/11/14 05:23:51;;;;;;;3.13;2.93;;;20.60;42.80;;;;;;5061206;28;20231;-61
2022/11/14 05:26:17;;;;;;;3.63;3.30;;;20.60;42.80;;;;;;5060935;28;20864;-63
2022/11/14 05:28:43;;;;;;;3.03;2.80;;;20.70;42.90;;;;;;5051151;28;20600;-61
2022/11/14 05:31:16;;;;;;;3.60;3.40;;;20.70;42.90;;;;;;5051309;28;20929;-60
2022/11/14 05:33:42;;;;;;;3.27;3.07;;;20.70;42.90;;;;;;5058350;28;20888;-62
2022/11/14 05:36:13;;;;;;;2.93;2.73;;;20.70;42.90;;;;;;5060490;28;20563;-62
2022/11/14 05:38:40;;;;;;;3.20;3.00;;;20.70;42.90;;;;;;5059875;28;20449;-62
2022/11/14 05:41:14;;;;;;;3.20;2.90;;;20.70;42.90;;;;;;5052654;28;20454;-64
2022/11/14 05:43:40;;;;;;;2.90;2.70;;;20.70;42.80;;;;;;5057283;28;20421;-63
2022/11/14 05:46:10;;;;;;;3.00;2.80;;;20.70;42.90;;;;;;5062506;28;20450;-63
2022/11/14 05:48:36;;;;;;;3.17;2.97;;;20.70;42.90;;;;;;5027202;28;20564;-64
2022/11/14 05:51:03;;;;;;;2.97;2.77;;;20.70;42.80;;;;;;5057673;28;20995;-63
2022/11/14 05:53:30;;;;;;;2.70;2.60;;;20.70;42.80;;;;;;5059202;28;20642;-63
2022/11/14 05:56:01;;;;;;;2.80;2.60;;;20.70;42.80;;;;;;5062118;28;20451;-63
2022/11/14 05:58:26;;;;;;;3.07;2.87;;;20.70;42.80;;;;;;5061474;28;20484;-63
2022/11/14 06:00:52;;;;;;;2.90;2.70;;;20.70;42.80;;;;;;5060785;28;20593;-63
2022/11/14 06:03:18;;;;;;;3.17;2.97;;;20.70;42.80;;;;;;5057728;28;20336;-63
2022/11/14 06:05:43;;;;;;;3.27;3.07;;;20.70;42.80;;;;;;5039321;28;20225;-63
2022/11/14 06:08:09;;;;;;;2.73;2.53;;;20.70;42.80;;;;;;5055929;28;20680;-62
2022/11/14 06:10:35;;;;;;;3.00;2.80;;;20.70;42.80;;;;;;5062082;28;20669;-63
2022/11/14 06:13:01;;;;;;;2.93;2.73;;;20.70;42.80;;;;;;5058240;28;20213;-62
2022/11/14 06:15:26;;;;;;;2.43;2.33;;;20.70;42.70;;;;;;5058384;28;20504;-63
2022/11/14 06:17:53;;;;;;;3.10;2.90;;;20.70;42.80;;;;;;5058865;28;20236;-63
2022/11/14 06:20:19;;;;;;;3.17;2.97;;;20.70;42.70;;;;;;5057786;28;20222;-62
2022/11/14 06:22:44;;;;;;;2.87;2.67;;;20.70;42.70;;;;;;5050741;28;20446;-63
2022/11/14 06:25:10;;;;;;;2.80;2.70;;;20.70;42.70;;;;;;5048703;28;21227;-62
2022/11/14 06:27:36;;;;;;;2.93;2.73;;;20.70;42.70;;;;;;5029341;28;20302;-62
2022/11/14 06:30:01;;;;;;;3.40;3.20;;;20.70;42.70;;;;;;5052960;28;20260;-63
2022/11/14 06:32:27;;;;;;;3.27;3.07;;;20.70;42.80;;;;;;5063796;28;20226;-63
2022/11/14 06:34:52;;;;;;;3.10;2.90;;;20.70;42.70;;;;;;5059209;28;20225;-69
2022/11/14 06:37:18;;;;;;;2.77;2.67;;;20.70;42.70;;;;;;5059406;28;20221;-69
2022/11/14 06:39:43;;;;;;;3.30;3.10;;;20.70;42.60;;;;;;5061563;28;20221;-69
2022/11/14 06:42:09;;;;;;;3.00;2.80;;;20.60;42.60;;;;;;5062299;28;20218;-69
2022/11/14 06:44:34;;;;;;;2.47;2.30;;;20.70;42.60;;;;;;5059621;28;20273;-69
2022/11/14 06:47:00;;;;;;;3.07;2.87;;;20.60;42.50;;;;;;5061752;28;20624;-69
2022/11/14 06:49:26;;;;;;;2.80;2.60;;;20.60;42.50;;;;;;5061702;28;20596;-69
2022/11/14 06:51:52;;;;;;;3.50;3.30;;;20.60;43.20;;;;;;5055456;28;20267;-71
2022/11/14 06:54:18;;;;;;;2.97;2.77;;;20.70;42.60;;;;;;5056051;28;20462;-68
2022/11/14 06:56:44;;;;;;;2.80;2.70;;;20.60;42.50;;;;;;5050031;28;20454;-68
2022/11/14 06:59:09;;;;;;;2.80;2.67;;;20.60;42.40;;;;;;5045759;28;20231;-67
2022/11/14 07:01:35;;;;;;;2.63;2.53;;;20.70;43.30;;;;;;5052618;28;20309;-67
2022/11/14 07:04:01;;;;;;;3.30;3.10;;;20.70;42.50;;;;;;5053795;28;20592;-67
2022/11/14 07:06:27;;;;;;;3.30;3.10;;;20.60;42.40;;;;;;5051712;28;20225;-67
2022/11/14 07:08:54;;;;;;;3.43;3.00;;;20.70;42.50;;;;;;5045638;28;20237;-66
2022/11/14 07:11:24;;;;;;;2.63;2.43;;;20.60;42.70;;;;;;5043662;28;20495;-65
2022/11/14 07:13:54;;;;;;;2.80;2.60;;;20.70;42.50;;;;;;5057315;28;21235;-66
2022/11/14 07:16:23;;;;;;;4.27;3.87;;;20.60;42.40;;;;;;5035463;28;20778;-67
2022/11/14 07:18:49;;;;;;;3.20;3.00;;;20.70;42.50;;;;;;5057009;28;20497;-66
2022/11/14 07:21:15;;;;;;;2.70;2.50;;;20.70;42.50;;;;;;5061168;28;20449;-66
2022/11/14 07:23:41;;;;;;;2.60;2.50;;;20.70;42.50;;;;;;5059521;28;20236;-66
2022/11/14 07:26:08;;;;;;;3.17;2.97;;;20.60;42.40;;;;;;5036672;28;20605;-66
2022/11/14 07:28:40;;;;;;;3.83;2.37;;;20.60;42.40;;;;;;5058583;28;20484;-66
2022/11/14 07:31:08;;;;;;;2.93;2.73;;;20.60;42.40;;;;;;5054731;28;20533;-66
2022/11/14 07:33:34;;;;;;;2.77;2.57;;;20.70;42.50;;;;;;5056408;28;20468;-66
2022/11/14 07:35:59;;;;;;;3.33;3.13;;;20.60;42.40;;;;;;5060389;28;20458;-67
2022/11/14 07:38:25;;;;;;;2.80;2.63;;;20.60;42.30;;;;;;5055360;28;20312;-66
2022/11/14 07:41:02;;;;;;;2.53;2.43;;;20.60;42.40;;;;;;5062881;28;20265;-66
2022/11/14 07:43:27;;;;;;;4.90;2.90;;;20.60;42.40;;;;;;5064942;28;20239;-66
2022/11/14 07:45:57;;;;;;;2.97;2.87;;;20.60;42.40;;;;;;5061699;28;20450;-66
2022/11/14 07:48:23;;;;;;;3.50;3.30;;;20.60;42.30;;;;;;5054983;28;20602;-65
2022/11/14 07:50:48;;;;;;;2.80;2.60;;;20.60;42.40;;;;;;5061891;28;20446;-66
2022/11/14 07:53:15;;;;;;;2.97;2.77;;;20.60;42.40;;;;;;5060598;28;20630;-65
2022/11/14 07:55:40;;;;;;;2.87;2.67;;;20.60;42.40;;;;;;5063211;28;20377;-65
2022/11/14 07:58:06;;;;;;;2.87;2.67;;;20.60;42.30;;;;;;5062483;28;20543;-66
2022/11/14 08:00:31;;;;;;;3.00;2.80;;;20.60;42.40;;;;;;5044573;28;20217;-66
2022/11/14 08:02:57;;;;;;;2.60;2.43;;;20.60;42.30;;;;;;5060743;28;20622;-66
2022/11/14 08:05:22;;;;;;;3.07;2.80;;;20.60;42.30;;;;;;5062246;28;20618;-66
2022/11/14 08:07:52;;;;;;;2.97;2.67;;;20.60;42.40;;;;;;5063856;28;20225;-66
2022/11/14 08:10:18;;;;;;;2.70;2.50;;;20.60;42.40;;;;;;5066187;28;20303;-66
2022/11/14 08:12:44;;;;;;;3.00;2.80;;;20.60;42.40;;;;;;5063846;28;20953;-66
2022/11/14 08:15:12;;;;;;;2.80;2.60;;;20.60;42.40;;;;;;5061281;28;20446;-66
2022/11/14 08:17:38;;;;;;;2.63;2.53;;;20.60;42.40;;;;;;5061542;28;20458;-66
2022/11/14 08:20:05;;;;;;;3.07;2.70;;;20.60;42.40;;;;;;5064830;28;20510;-66
2022/11/14 08:22:31;;;;;;;3.37;3.17;;;20.60;42.40;;;;;;5063235;28;20439;-66
2022/11/14 08:24:57;;;;;;;3.23;3.03;;;20.60;42.40;;;;;;5063096;28;20458;-66
2022/11/14 08:27:23;;;;;;;3.47;3.27;;;20.60;42.40;;;;;;5046383;28;20356;-65
2022/11/14 08:29:50;;;;;;;2.67;2.57;;;20.60;42.40;;;;;;5062803;28;20493;-67
2022/11/14 08:32:16;;;;;;;3.07;2.87;;;20.60;42.40;;;;;;5065023;28;20462;-66
2022/11/14 08:34:41;;;;;;;3.10;2.90;;;20.60;42.50;;;;;;5064405;28;20916;-65
2022/11/14 08:37:07;;;;;;;3.43;3.23;;;20.60;42.40;;;;;;5064111;28;20453;-66
2022/11/14 08:39:32;;;;;;;3.03;2.73;;;20.60;42.40;;;;;;5062677;28;20225;-66
2022/11/14 08:41:58;;;;;;;2.80;2.70;;;20.60;42.40;;;;;;5044885;28;20229;-66
2022/11/14 08:44:23;;;;;;;2.83;2.63;;;20.60;42.40;;;;;;5041870;28;20575;-65
2022/11/14 08:46:50;;;;;;;2.83;2.63;;;20.60;42.40;;;;;;5066084;28;20229;-65
2022/11/14 08:49:15;;;;;;;3.00;2.80;;;20.60;42.40;;;;;;5060362;28;20273;-66
2022/11/14 08:51:41;;;;;;;3.23;3.03;;;20.60;42.40;;;;;;5060903;28;20780;-66
2022/11/14 08:54:06;;;;;;;3.20;3.00;;;20.60;42.40;;;;;;5062768;28;20711;-66
2022/11/14 08:56:32;;;;;;;2.87;2.70;;;20.60;42.50;;;;;;5064107;28;20676;-66
2022/11/14 08:58:58;;;;;;;2.80;2.70;;;20.60;42.50;;;;;;5059291;28;20676;-66
2022/11/14 09:01:24;;;;;;;2.80;2.70;;;20.60;43.20;;;;;;5063490;28;20304;-66
2022/11/14 09:03:49;;;;;;;2.63;2.50;;;20.60;42.40;;;;;;5059952;28;20549;-66
2022/11/14 09:06:15;;;;;;;2.90;2.70;;;20.60;42.40;;;;;;5047287;28;20229;-66
2022/11/14 09:08:40;;;;;;;3.27;3.07;;;20.60;42.50;;;;;;5062171;28;20566;-66
2022/11/14 09:11:06;;;;;;;3.63;3.33;;;20.60;42.50;;;;;;5063275;28;20225;-66
2022/11/14 09:13:34;;;;;;;2.67;2.53;;;20.60;42.50;;;;;;5062938;28;20232;-66
2022/11/14 09:16:00;;;;;;;3.10;2.90;;;20.60;42.50;;;;;;5064316;28;20225;-66
2022/11/14 09:18:25;;;;;;;2.70;2.60;;;20.60;42.50;;;;;;5061677;28;21137;-66
2022/11/14 09:20:51;;;;;;;3.23;3.03;;;20.60;42.50;;;;;;5062530;28;20232;-65
2022/11/14 09:23:16;;;;;;;3.20;3.00;;;20.60;42.50;;;;;;5064428;28;20693;-66
2022/11/14 09:25:42;;;;;;;2.47;2.37;;;20.50;42.40;;;;;;5063043;28;20316;-67
2022/11/14 09:28:08;;;;;;;2.93;2.80;;;20.60;42.50;;;;;;5062936;28;20235;-66
2022/11/14 09:30:35;;;;;;;2.97;2.83;;;20.50;42.50;;;;;;5060045;28;20221;-66
2022/11/14 09:33:03;;;;;;;2.83;2.67;;;20.50;42.40;;;;;;5062307;28;20512;-66
2022/11/14 09:35:30;;;;;;;3.20;2.70;;;20.50;42.50;;;;;;5063821;28;20477;-66
2022/11/14 09:38:04;;;;;;;2.83;2.67;;;20.50;42.50;;;;;;5061729;28;20565;-65
2022/11/14 09:40:39;;;;;;;3.03;2.83;;;20.50;42.50;;;;;;5063476;28;20453;-66
2022/11/14 09:43:20;;;;;;;2.50;2.40;;;20.50;42.40;;;;;;5060977;28;20457;-66
2022/11/14 09:45:49;;;;;;;2.70;2.57;;;20.50;42.40;;;;;;5063299;28;20461;-66
2022/11/14 09:48:20;;;;;;;3.50;3.07;;;20.50;42.50;;;;;;5063668;28;20979;-67
2022/11/14 09:50:57;;;;;;;3.50;3.30;;;20.50;42.50;;;;;;5061961;28;20448;-66
2022/11/14 09:53:56;;;;;;;2.63;2.47;;;20.50;42.50;;;;;;5060367;28;20473;-66
2022/11/14 09:56:24;;;;;;;2.77;2.67;;;20.50;42.50;;;;;;5039251;28;20450;-66
2022/11/14 09:58:50;;;;;;;3.00;2.80;;;20.50;42.50;;;;;;5058592;28;20878;-66
2022/11/14 10:01:34;;;;;;;3.13;2.93;;;20.50;42.40;;;;;;5057542;28;20473;-66
2022/11/14 10:04:10;;;;;;;2.90;2.70;;;20.50;42.50;;;;;;5054830;28;20397;-66
2022/11/14 10:06:55;;;;;;;3.17;2.97;;;20.50;42.40;;;;;;5058835;28;21278;-66
2022/11/14 10:09:58;;;;;;;2.83;2.63;;;20.50;42.40;;;;;;5061546;28;20465;-66
2022/11/14 10:12:40;;;;;;;3.23;3.03;;;20.50;42.50;;;;;;5060336;28;20480;-66
2022/11/14 10:15:24;;;;;;;3.00;2.80;;;20.50;42.50;;;;;;5059867;28;20858;-66
2022/11/14 10:18:38;;;;;;;3.10;2.90;;;20.50;42.50;;;;;;5062088;28;21245;-66
2022/11/14 10:21:22;;;;;;;3.43;3.23;;;20.50;42.50;;;;;;5034332;28;20533;-66
2022/11/14 10:23:56;;;;;;;3.17;2.90;;;20.50;42.50;;;;;;5062767;28;20458;-66
2022/11/14 10:26:30;;;;;;;2.33;2.13;;;20.50;42.50;;;;;;5058713;28;20469;-66
2022/11/14 10:29:39;;;;;;;2.73;2.63;;;20.50;42.50;;;;;;5056742;28;20474;-66
2022/11/14 10:32:42;;;;;;;3.07;2.87;;;20.50;42.50;;;;;;5055841;28;20464;-66
2022/11/14 10:35:21;;;;;;;3.20;3.00;;;20.50;42.50;;;;;;5059166;28;20545;-66
2022/11/14 10:38:14;;;;;;;2.50;2.40;;;20.50;42.50;;;;;;5055373;28;20470;-66
2022/11/14 10:40:53;;;;;;;3.03;2.83;;;20.50;42.50;;;;;;5055776;28;20454;-67
2022/11/14 10:43:23;;;;;;;3.43;3.23;;;20.50;42.50;;;;;;5037201;28;20476;-67
2022/11/14 10:45:54;;;;;;;3.37;3.17;;;20.50;42.50;;;;;;5061342;28;20458;-65
2022/11/14 10:48:30;;;;;;;2.73;2.53;;;20.50;42.50;;;;;;5036074;28;20541;-65
2022/11/14 10:51:32;;;;;;;3.30;3.10;;;20.50;42.40;;;;;;5060819;28;20481;-65
2022/11/14 10:54:32;;;;;;;3.07;2.90;;;20.50;42.30;;;;;;5057062;28;20473;-67
2022/11/14 10:56:58;;;;;;;2.87;2.67;;;20.50;42.30;;;;;;5056271;28;20462;-66
2022/11/14 10:59:23;;;;;;;3.27;2.97;;;20.50;42.40;;;;;;5059622;28;20507;-65
2022/11/14 11:01:49;;;;;;;3.03;2.83;;;20.50;42.40;;;;;;5061072;28;20696;-67
2022/11/14 11:04:25;;;;;;;2.80;2.70;;;20.50;42.30;;;;;;5058568;28;21046;-65
2022/11/14 11:06:54;;;;;;;2.77;2.57;;;20.50;42.40;;;;;;5060530;28;20328;-65
2022/11/14 11:12:17;;;;;;;3.10;2.90;;;20.50;42.40;;;;;;5060921;28;20465;-65
2022/11/14 11:14:47;;;;;;;3.27;3.07;;;20.50;42.40;;;;;;5060109;28;20477;-65
2022/11/14 11:17:18;;;;;;;3.03;2.83;;;20.50;42.40;;;;;;5059361;28;20445;-65
2022/11/14 11:19:46;;;;;;;3.60;3.40;;;20.50;42.30;;;;;;5059460;28;20435;-65
2022/11/14 11:22:28;;;;;;;2.80;2.60;;;20.50;42.30;;;;;;5059969;28;20987;-65
2022/11/14 11:24:54;;;;;;;3.10;3.00;;;20.50;42.30;;;;;;5060756;28;20543;-65
2022/11/14 11:27:24;;;;;;;3.00;2.80;;;20.50;42.40;;;;;;5061481;28;20903;-65
2022/11/14 11:30:02;;;;;;;3.00;2.80;;;20.50;42.30;;;;;;5059871;28;20256;-65
2022/11/14 11:32:28;;;;;;;2.93;2.73;;;20.50;42.30;;;;;;5055558;28;20957;-66
2022/11/14 11:34:56;;;;;;;2.70;2.50;;;20.50;42.30;;;;;;5060737;28;20465;-65
2022/11/14 11:37:54;;;;;;;2.60;2.50;;;20.50;42.30;;;;;;5060538;28;20217;-66
2022/11/14 11:40:25;;;;;;;3.10;2.90;;;20.50;42.30;;;;;;5036925;28;20454;-66
2022/11/14 11:43:05;;;;;;;3.27;3.07;;;20.50;42.30;;;;;;5055155;28;21394;-67
2022/11/14 11:45:33;;;;;;;3.27;3.07;;;20.50;42.30;;;;;;5058871;28;20464;-65
2022/11/14 11:48:16;;;;;;;3.47;3.17;;;20.50;42.30;;;;;;5053572;28;21106;-65
2022/11/14 11:50:42;;;;;;;2.63;2.53;;;20.50;42.20;;;;;;5057477;28;20473;-65
2022/11/14 11:53:51;;;;;;;3.10;2.90;;;20.50;42.20;;;;;;5058982;28;20428;-65
2022/11/14 11:56:23;;;;;;;2.70;2.50;;;20.50;42.20;;;;;;4972976;28;20228;-67
2022/11/14 11:58:53;;;;;;;2.70;2.60;;;20.50;42.20;;;;;;4975247;28;20466;-65
2022/11/14 12:01:19;;;;;;;3.00;2.90;;;20.50;42.20;;;;;;5012800;28;20486;-66
2022/11/14 12:03:50;;;;;;;2.70;2.50;;;20.50;42.20;;;;;;5060631;28;20533;-65
2022/11/14 12:06:24;;;;;;;2.93;2.73;;;20.50;42.20;;;;;;5057820;28;20218;-65
2022/11/14 12:09:16;;;;;;;3.00;2.80;;;20.50;42.20;;;;;;5054127;28;20453;-66
2022/11/14 12:11:48;;;;;;;2.93;2.73;;;20.50;42.20;;;;;;5056834;28;20461;-66
2022/11/14 12:14:44;;;;;;;3.13;2.93;;;20.50;42.20;;;;;;5052525;28;20454;-64
2022/11/14 12:17:47;;;;;;;3.40;3.20;;;20.50;42.20;;;;;;5048535;28;20536;-66
2022/11/14 12:20:32;;;;;;;3.20;3.00;;;20.50;42.20;;;;;;5052339;28;20460;-66
2022/11/14 12:23:17;;;;;;;2.93;2.73;;;20.50;42.20;;;;;;5056151;28;20444;-66
2022/11/14 12:25:42;;;;;;;3.50;3.30;;;20.50;42.30;;;;;;5063391;28;20480;-66
2022/11/14 12:28:58;;;;;;;2.63;2.53;;;20.50;42.30;;;;;;5066093;28;23521;-66
2022/11/14 12:31:27;;;;;;;3.50;3.30;;;20.50;42.20;;;;;;5029638;28;20220;-66
2022/11/14 12:34:01;;;;;;;3.43;3.23;;;20.50;42.30;;;;;;5047182;28;20507;-66
2022/11/14 12:36:33;;;;;;;3.17;2.97;;;20.50;42.30;;;;;;5066057;28;20460;-65
2022/11/14 12:39:00;;;;;;;3.10;2.90;;;20.50;42.30;;;;;;5064584;28;20436;-66
2022/11/14 12:41:29;;;;;;;3.60;3.40;;;20.50;42.30;;;;;;5063244;28;20450;-65
2022/11/14 12:44:30;;;;;;;3.10;2.90;;;20.50;42.30;;;;;;5062067;28;20466;-65
2022/11/14 12:47:03;;;;;;;3.00;2.80;;;20.50;42.30;;;;;;5058077;28;20792;-65
2022/11/14 12:49:37;;;;;;;3.20;3.00;;;20.50;42.40;;;;;;5060481;28;20890;-66
2022/11/14 12:52:02;;;;;;;3.40;3.20;;;20.50;42.30;;;;;;5060990;28;20493;-65
2022/11/14 12:54:44;;;;;;;3.27;3.07;;;20.50;42.40;;;;;;5061427;28;20528;-66
2022/11/14 12:57:46;;;;;;;3.20;3.00;;;20.50;42.30;;;;;;5057369;28;20229;-66
2022/11/14 13:00:07;;;;;;;3.10;2.90;;;20.50;42.30;;;;;;5056769;28;20995;-66
2022/11/14 13:02:44;;;;;;;3.17;2.97;;;20.50;42.30;;;;;;5061102;28;20563;-66